sensor_id;sensor_type;location;lat;lon;timestamp;temperature;humidity
19000;DHT22;9633;50.980;13.850;2022-12-04T00:00:08;2.90;99.90
19000;DHT22;9633;50.980;13.850;2022-12-04T00:01:41;2.90;99.90
19000;DHT22;9633;50.980;13.850;2022-12-04T00:03:14;2.90;99.90
19000;DHT22;9633;50.980;13.850;2022-12-04T00:04:48;2.90;99.90
19000;DHT22;9633;50.980;13.850;2022-12-04T00:06:22;2.90;99.90
19000;DHT22;9633;50.980;13.850;2022-12-04T00:07:55;3.00;99.90
19000;DHT22;9633;50.980;13.850;2022-12-04T00:09:29;2.90;99.90
19000;DHT22;9633;50.980;13.850;2022-12-04T00:11:03;3.00;99.90
19000;DHT22;9633;50.980;13.850;2022-12-04T00:12:37;2.90;99.90
19000;DHT22;9633;50.980;13.850;2022-12-04T00:14:10;3.00;99.90
19000;DHT22;9633;50.980;13.850;2022-12-04T00:15:43;3.00;99.90
19000;DHT22;9633;50.980;13.850;2022-12-04T00:17:17;3.10;99.90
19000;DHT22;9633;50.980;13.850;2022-12-04T00:18:50;3.00;99.90
19000;DHT22;9633;50.980;13.850;2022-12-04T00:20:24;3.10;99.90
19000;DHT22;9633;50.980;13.850;2022-12-04T00:21:57;3.10;99.90
19000;DHT22;9633;50.980;13.850;2022-12-04T00:23:31;3.10;99.90
19000;DHT22;9633;50.980;13.850;2022-12-04T00:25:04;3.10;99.90
19000;DHT22;9633;50.980;13.850;2022-12-04T00:26:38;3.10;99.90
19000;DHT22;9633;50.980;13.850;2022-12-04T00:28:12;3.10;99.90
19000;DHT22;9633;50.980;13.850;2022-12-04T00:29:46;3.00;99.90
19000;DHT22;9633;50.980;13.850;2022-12-04T00:31:22;3.00;99.90
19000;DHT22;9633;50.980;13.850;2022-12-04T00:32:56;3.00;99.90
19000;DHT22;9633;50.980;13.850;2022-12-04T00:34:28;3.00;99.90
19000;DHT22;9633;50.980;13.850;2022-12-04T00:36:04;3.00;99.90
19000;DHT22;9633;50.980;13.850;2022-12-04T00:37:37;3.00;99.90
19000;DHT22;9633;50.980;13.850;2022-12-04T00:39:10;3.10;99.90
19000;DHT22;9633;50.980;13.850;2022-12-04T00:40:48;3.10;99.90
19000;DHT22;9633;50.980;13.850;2022-12-04T00:42:21;3.10;99.90
19000;DHT22;9633;50.980;13.850;2022-12-04T00:43:56;3.10;99.90
19000;DHT22;9633;50.980;13.850;2022-12-04T00:45:29;3.10;99.90
19000;DHT22;9633;50.980;13.850;2022-12-04T00:47:03;3.10;99.90
19000;DHT22;9633;50.980;13.850;2022-12-04T00:48:36;3.10;99.90
19000;DHT22;9633;50.980;13.850;2022-12-04T00:50:09;3.10;99.90
19000;DHT22;9633;50.980;13.850;2022-12-04T00:51:43;3.10;99.90
19000;DHT22;9633;50.980;13.850;2022-12-04T00:53:16;3.10;99.90
19000;DHT22;9633;50.980;13.850;2022-12-04T00:54:48;3.20;99.90
19000;DHT22;9633;50.980;13.850;2022-12-04T00:56:24;3.10;99.90
19000;DHT22;9633;50.980;13.850;2022-12-04T00:57:57;3.10;99.90
19000;DHT22;9633;50.980;13.850;2022-12-04T00:59:32;3.20;99.90
19000;DHT22;9633;50.980;13.850;2022-12-04T01:01:07;3.20;99.90
19000;DHT22;9633;50.980;13.850;2022-12-04T01:02:41;3.20;99.90
19000;DHT22;9633;50.980;13.850;2022-12-04T01:04:14;3.20;99.90
19000;DHT22;9633;50.980;13.850;2022-12-04T01:05:47;3.20;99.90
19000;DHT22;9633;50.980;13.850;2022-12-04T01:07:20;3.20;99.90
19000;DHT22;9633;50.980;13.850;2022-12-04T01:08:54;3.20;99.90
19000;DHT22;9633;50.980;13.850;2022-12-04T01:10:27;3.20;99.90
19000;DHT22;9633;50.980;13.850;2022-12-04T01:12:00;3.30;99.90
19000;DHT22;9633;50.980;13.850;2022-12-04T01:13:33;3.30;99.90
19000;DHT22;9633;50.980;13.850;2022-12-04T01:15:08;3.30;99.90
19000;DHT22;9633;50.980;13.850;2022-12-04T01:16:42;3.30;99.90
19000;DHT22;9633;50.980;13.850;2022-12-04T01:18:16;3.30;99.90
19000;DHT22;9633;50.980;13.850;2022-12-04T01:19:48;3.30;99.90
19000;DHT22;9633;50.980;13.850;2022-12-04T01:21:21;3.30;99.90
19000;DHT22;9633;50.980;13.850;2022-12-04T01:22:55;3.30;99.90
19000;DHT22;9633;50.980;13.850;2022-12-04T01:24:28;3.30;99.90
19000;DHT22;9633;50.980;13.850;2022-12-04T01:26:01;3.30;99.90
19000;DHT22;9633;50.980;13.850;2022-12-04T01:27:34;3.30;99.90
19000;DHT22;9633;50.980;13.850;2022-12-04T01:29:06;3.30;99.90
19000;DHT22;9633;50.980;13.850;2022-12-04T01:30:41;3.30;99.90
19000;DHT22;9633;50.980;13.850;2022-12-04T01:32:13;3.40;99.90
19000;DHT22;9633;50.980;13.850;2022-12-04T01:33:47;3.30;99.90
19000;DHT22;9633;50.980;13.850;2022-12-04T01:35:20;3.30;99.90
19000;DHT22;9633;50.980;13.850;2022-12-04T01:36:53;3.30;99.90
19000;DHT22;9633;50.980;13.850;2022-12-04T01:38:27;3.30;99.90
19000;DHT22;9633;50.980;13.850;2022-12-04T01:40:00;3.30;99.90
19000;DHT22;9633;50.980;13.850;2022-12-04T01:41:34;3.30;99.90
19000;DHT22;9633;50.980;13.850;2022-12-04T01:43:09;3.30;99.90
19000;DHT22;9633;50.980;13.850;2022-12-04T01:46:33;3.30;99.90
19000;DHT22;9633;50.980;13.850;2022-12-04T01:48:12;3.30;99.90
19000;DHT22;9633;50.980;13.850;2022-12-04T01:49:47;3.40;99.90
19000;DHT22;9633;50.980;13.850;2022-12-04T01:51:23;3.30;99.90
19000;DHT22;9633;50.980;13.850;2022-12-04T01:52:58;3.30;99.90
19000;DHT22;9633;50.980;13.850;2022-12-04T01:54:34;3.30;99.90
19000;DHT22;9633;50.980;13.850;2022-12-04T01:56:09;3.30;99.90
19000;DHT22;9633;50.980;13.850;2022-12-04T01:57:42;3.30;99.90
19000;DHT22;9633;50.980;13.850;2022-12-04T01:59:21;3.40;99.90
19000;DHT22;9633;50.980;13.850;2022-12-04T02:00:59;3.40;99.90
19000;DHT22;9633;50.980;13.850;2022-12-04T02:02:42;3.40;99.90
19000;DHT22;9633;50.980;13.850;2022-12-04T02:04:16;3.30;99.90
19000;DHT22;9633;50.980;13.850;2022-12-04T02:05:49;3.30;99.90
19000;DHT22;9633;50.980;13.850;2022-12-04T02:07:23;3.30;99.90
19000;DHT22;9633;50.980;13.850;2022-12-04T02:08:56;3.30;99.90
19000;DHT22;9633;50.980;13.850;2022-12-04T02:10:34;3.40;99.90
19000;DHT22;9633;50.980;13.850;2022-12-04T02:12:17;3.30;99.90
19000;DHT22;9633;50.980;13.850;2022-12-04T02:13:57;3.40;99.90
19000;DHT22;9633;50.980;13.850;2022-12-04T02:15:38;3.40;99.90
19000;DHT22;9633;50.980;13.850;2022-12-04T02:17:18;3.40;99.90
19000;DHT22;9633;50.980;13.850;2022-12-04T02:19:00;3.40;99.90
19000;DHT22;9633;50.980;13.850;2022-12-04T02:20:43;3.50;99.90
19000;DHT22;9633;50.980;13.850;2022-12-04T02:22:28;3.40;99.90
19000;DHT22;9633;50.980;13.850;2022-12-04T02:24:20;3.40;99.90
19000;DHT22;9633;50.980;13.850;2022-12-04T02:26:00;3.50;99.90
19000;DHT22;9633;50.980;13.850;2022-12-04T02:29:50;3.40;99.90
19000;DHT22;9633;50.980;13.850;2022-12-04T02:31:32;3.40;99.90
19000;DHT22;9633;50.980;13.850;2022-12-04T02:33:18;3.40;99.90
19000;DHT22;9633;50.980;13.850;2022-12-04T02:34:55;3.40;99.90
19000;DHT22;9633;50.980;13.850;2022-12-04T02:36:33;3.40;99.90
19000;DHT22;9633;50.980;13.850;2022-12-04T02:38:13;3.40;99.90
19000;DHT22;9633;50.980;13.850;2022-12-04T02:39:51;3.40;99.90
19000;DHT22;9633;50.980;13.850;2022-12-04T02:41:32;3.40;99.90
19000;DHT22;9633;50.980;13.850;2022-12-04T02:43:13;3.40;99.90
19000;DHT22;9633;50.980;13.850;2022-12-04T02:44:51;3.40;99.90
19000;DHT22;9633;50.980;13.850;2022-12-04T02:46:28;3.50;99.90
19000;DHT22;9633;50.980;13.850;2022-12-04T02:48:05;3.50;99.90
19000;DHT22;9633;50.980;13.850;2022-12-04T02:49:41;3.40;99.90
19000;DHT22;9633;50.980;13.850;2022-12-04T02:51:18;3.40;99.90
19000;DHT22;9633;50.980;13.850;2022-12-04T02:52:54;3.40;99.90
19000;DHT22;9633;50.980;13.850;2022-12-04T02:54:33;3.50;99.90
19000;DHT22;9633;50.980;13.850;2022-12-04T02:56:10;3.50;99.90
19000;DHT22;9633;50.980;13.850;2022-12-04T02:57:47;3.40;99.90
19000;DHT22;9633;50.980;13.850;2022-12-04T02:59:27;3.40;99.90
19000;DHT22;9633;50.980;13.850;2022-12-04T03:01:05;3.40;99.90
19000;DHT22;9633;50.980;13.850;2022-12-04T03:02:54;3.40;99.90
19000;DHT22;9633;50.980;13.850;2022-12-04T03:04:30;3.50;99.90
19000;DHT22;9633;50.980;13.850;2022-12-04T03:06:06;3.50;99.90
19000;DHT22;9633;50.980;13.850;2022-12-04T03:07:44;3.50;99.90
19000;DHT22;9633;50.980;13.850;2022-12-04T03:09:21;3.50;99.90
19000;DHT22;9633;50.980;13.850;2022-12-04T03:10:56;3.60;99.90
19000;DHT22;9633;50.980;13.850;2022-12-04T03:12:37;3.60;99.90
19000;DHT22;9633;50.980;13.850;2022-12-04T03:14:15;3.50;99.90
19000;DHT22;9633;50.980;13.850;2022-12-04T03:15:52;3.60;99.90
19000;DHT22;9633;50.980;13.850;2022-12-04T03:17:33;3.50;99.90
19000;DHT22;9633;50.980;13.850;2022-12-04T03:19:11;3.50;99.90
19000;DHT22;9633;50.980;13.850;2022-12-04T03:20:49;3.60;99.90
19000;DHT22;9633;50.980;13.850;2022-12-04T03:22:23;3.60;99.90
19000;DHT22;9633;50.980;13.850;2022-12-04T03:24:01;3.60;99.90
19000;DHT22;9633;50.980;13.850;2022-12-04T03:25:40;3.60;99.90
19000;DHT22;9633;50.980;13.850;2022-12-04T03:27:19;3.60;99.90
19000;DHT22;9633;50.980;13.850;2022-12-04T03:28:58;3.60;99.90
19000;DHT22;9633;50.980;13.850;2022-12-04T03:30:37;3.60;99.90
19000;DHT22;9633;50.980;13.850;2022-12-04T03:32:16;3.70;99.90
19000;DHT22;9633;50.980;13.850;2022-12-04T03:33:54;3.60;99.90
19000;DHT22;9633;50.980;13.850;2022-12-04T03:35:33;3.60;99.90
19000;DHT22;9633;50.980;13.850;2022-12-04T03:37:13;3.50;99.90
19000;DHT22;9633;50.980;13.850;2022-12-04T03:38:54;3.60;99.90
19000;DHT22;9633;50.980;13.850;2022-12-04T03:40:33;3.60;99.90
19000;DHT22;9633;50.980;13.850;2022-12-04T03:42:12;3.50;99.90
19000;DHT22;9633;50.980;13.850;2022-12-04T03:43:50;3.50;99.90
19000;DHT22;9633;50.980;13.850;2022-12-04T03:45:27;3.50;99.90
19000;DHT22;9633;50.980;13.850;2022-12-04T03:47:05;3.50;99.90
19000;DHT22;9633;50.980;13.850;2022-12-04T03:48:42;3.50;99.90
19000;DHT22;9633;50.980;13.850;2022-12-04T03:50:22;3.50;99.90
19000;DHT22;9633;50.980;13.850;2022-12-04T03:51:59;3.50;99.90
19000;DHT22;9633;50.980;13.850;2022-12-04T03:53:37;3.50;99.90
19000;DHT22;9633;50.980;13.850;2022-12-04T03:55:16;3.50;99.90
19000;DHT22;9633;50.980;13.850;2022-12-04T03:56:56;3.60;99.90
19000;DHT22;9633;50.980;13.850;2022-12-04T03:58:32;3.60;99.90
19000;DHT22;9633;50.980;13.850;2022-12-04T04:00:10;3.50;99.90
19000;DHT22;9633;50.980;13.850;2022-12-04T04:01:47;3.50;99.90
19000;DHT22;9633;50.980;13.850;2022-12-04T04:03:23;3.50;99.90
19000;DHT22;9633;50.980;13.850;2022-12-04T04:05:03;3.50;99.90
19000;DHT22;9633;50.980;13.850;2022-12-04T04:06:41;3.50;99.90
19000;DHT22;9633;50.980;13.850;2022-12-04T04:08:17;3.50;99.90
19000;DHT22;9633;50.980;13.850;2022-12-04T04:10:05;3.50;99.90
19000;DHT22;9633;50.980;13.850;2022-12-04T04:11:42;3.50;99.90
19000;DHT22;9633;50.980;13.850;2022-12-04T04:13:20;3.50;99.90
19000;DHT22;9633;50.980;13.850;2022-12-04T04:15:13;3.40;99.90
19000;DHT22;9633;50.980;13.850;2022-12-04T04:17:08;3.50;99.90
19000;DHT22;9633;50.980;13.850;2022-12-04T04:19:08;3.50;99.90
19000;DHT22;9633;50.980;13.850;2022-12-04T04:21:11;3.50;99.90
19000;DHT22;9633;50.980;13.850;2022-12-04T04:23:04;3.50;99.90
19000;DHT22;9633;50.980;13.850;2022-12-04T04:25:01;3.50;99.90
19000;DHT22;9633;50.980;13.850;2022-12-04T04:26:39;3.60;99.90
19000;DHT22;9633;50.980;13.850;2022-12-04T04:28:32;3.60;99.90
19000;DHT22;9633;50.980;13.850;2022-12-04T04:30:06;3.60;99.90
19000;DHT22;9633;50.980;13.850;2022-12-04T04:31:42;3.60;99.90
19000;DHT22;9633;50.980;13.850;2022-12-04T04:33:17;3.60;99.90
19000;DHT22;9633;50.980;13.850;2022-12-04T04:34:56;3.50;99.90
19000;DHT22;9633;50.980;13.850;2022-12-04T04:36:40;3.60;99.90
19000;DHT22;9633;50.980;13.850;2022-12-04T04:38:20;3.60;99.90
19000;DHT22;9633;50.980;13.850;2022-12-04T04:39:59;3.60;99.90
19000;DHT22;9633;50.980;13.850;2022-12-04T04:41:38;3.60;99.90
19000;DHT22;9633;50.980;13.850;2022-12-04T04:43:16;3.70;99.90
19000;DHT22;9633;50.980;13.850;2022-12-04T04:44:55;3.70;99.90
19000;DHT22;9633;50.980;13.850;2022-12-04T04:46:32;3.70;99.90
19000;DHT22;9633;50.980;13.850;2022-12-04T04:48:07;3.80;99.90
19000;DHT22;9633;50.980;13.850;2022-12-04T04:49:42;3.70;99.90
19000;DHT22;9633;50.980;13.850;2022-12-04T04:51:16;3.70;99.90
19000;DHT22;9633;50.980;13.850;2022-12-04T04:52:54;3.70;99.90
19000;DHT22;9633;50.980;13.850;2022-12-04T04:54:29;3.70;99.90
19000;DHT22;9633;50.980;13.850;2022-12-04T04:56:04;3.70;99.90
19000;DHT22;9633;50.980;13.850;2022-12-04T04:57:38;3.70;99.90
19000;DHT22;9633;50.980;13.850;2022-12-04T04:59:12;3.20;99.90
19000;DHT22;9633;50.980;13.850;2022-12-04T05:00:52;3.60;99.90
19000;DHT22;9633;50.980;13.850;2022-12-04T05:02:26;3.60;99.90
19000;DHT22;9633;50.980;13.850;2022-12-04T05:04:00;3.70;99.90
19000;DHT22;9633;50.980;13.850;2022-12-04T05:05:33;3.70;99.90
19000;DHT22;9633;50.980;13.850;2022-12-04T05:07:06;3.70;99.90
19000;DHT22;9633;50.980;13.850;2022-12-04T05:08:40;3.80;99.90
19000;DHT22;9633;50.980;13.850;2022-12-04T05:10:13;3.80;99.90
19000;DHT22;9633;50.980;13.850;2022-12-04T05:11:46;3.80;99.90
19000;DHT22;9633;50.980;13.850;2022-12-04T05:13:20;3.80;99.90
19000;DHT22;9633;50.980;13.850;2022-12-04T05:14:53;3.80;99.90
19000;DHT22;9633;50.980;13.850;2022-12-04T05:16:26;3.80;99.90
19000;DHT22;9633;50.980;13.850;2022-12-04T05:17:59;3.90;99.90
19000;DHT22;9633;50.980;13.850;2022-12-04T05:19:32;3.90;99.90
19000;DHT22;9633;50.980;13.850;2022-12-04T05:21:23;3.90;99.90
19000;DHT22;9633;50.980;13.850;2022-12-04T05:22:56;3.90;99.90
19000;DHT22;9633;50.980;13.850;2022-12-04T05:24:31;3.90;99.90
19000;DHT22;9633;50.980;13.850;2022-12-04T05:26:04;3.90;99.90
19000;DHT22;9633;50.980;13.850;2022-12-04T05:27:37;3.90;99.90
19000;DHT22;9633;50.980;13.850;2022-12-04T05:29:10;3.90;99.90
19000;DHT22;9633;50.980;13.850;2022-12-04T05:30:43;3.90;99.90
19000;DHT22;9633;50.980;13.850;2022-12-04T05:32:17;3.90;99.90
19000;DHT22;9633;50.980;13.850;2022-12-04T05:33:50;3.90;99.90
19000;DHT22;9633;50.980;13.850;2022-12-04T05:35:22;4.00;99.90
19000;DHT22;9633;50.980;13.850;2022-12-04T05:36:55;3.90;99.90
19000;DHT22;9633;50.980;13.850;2022-12-04T05:38:27;3.90;99.90
19000;DHT22;9633;50.980;13.850;2022-12-04T05:40:02;3.90;99.90
19000;DHT22;9633;50.980;13.850;2022-12-04T05:41:35;4.00;99.90
19000;DHT22;9633;50.980;13.850;2022-12-04T05:43:08;4.00;99.90
19000;DHT22;9633;50.980;13.850;2022-12-04T05:44:41;4.00;99.90
19000;DHT22;9633;50.980;13.850;2022-12-04T05:46:14;4.00;99.90
19000;DHT22;9633;50.980;13.850;2022-12-04T05:47:46;3.90;99.90
19000;DHT22;9633;50.980;13.850;2022-12-04T05:49:19;4.00;99.90
19000;DHT22;9633;50.980;13.850;2022-12-04T05:50:51;4.00;99.90
19000;DHT22;9633;50.980;13.850;2022-12-04T05:52:24;4.00;99.90
19000;DHT22;9633;50.980;13.850;2022-12-04T05:53:58;4.00;99.90
19000;DHT22;9633;50.980;13.850;2022-12-04T05:55:32;4.00;99.90
19000;DHT22;9633;50.980;13.850;2022-12-04T05:57:05;4.00;99.90
19000;DHT22;9633;50.980;13.850;2022-12-04T05:58:39;4.10;99.90
19000;DHT22;9633;50.980;13.850;2022-12-04T06:00:12;4.10;99.90
19000;DHT22;9633;50.980;13.850;2022-12-04T06:01:45;4.10;99.90
19000;DHT22;9633;50.980;13.850;2022-12-04T06:03:19;4.20;99.90
19000;DHT22;9633;50.980;13.850;2022-12-04T06:04:52;4.10;99.90
19000;DHT22;9633;50.980;13.850;2022-12-04T06:06:25;4.10;99.90
19000;DHT22;9633;50.980;13.850;2022-12-04T06:07:58;4.10;99.90
19000;DHT22;9633;50.980;13.850;2022-12-04T06:09:32;4.20;99.90
19000;DHT22;9633;50.980;13.850;2022-12-04T06:11:10;4.20;99.90
19000;DHT22;9633;50.980;13.850;2022-12-04T06:12:44;4.20;99.90
19000;DHT22;9633;50.980;13.850;2022-12-04T06:14:17;4.20;99.90
19000;DHT22;9633;50.980;13.850;2022-12-04T06:15:50;4.20;99.90
19000;DHT22;9633;50.980;13.850;2022-12-04T06:17:23;4.20;99.90
19000;DHT22;9633;50.980;13.850;2022-12-04T06:18:58;4.20;99.90
19000;DHT22;9633;50.980;13.850;2022-12-04T06:20:31;4.30;99.90
19000;DHT22;9633;50.980;13.850;2022-12-04T06:22:04;4.30;99.90
19000;DHT22;9633;50.980;13.850;2022-12-04T06:23:37;4.30;99.90
19000;DHT22;9633;50.980;13.850;2022-12-04T06:25:10;4.30;99.90
19000;DHT22;9633;50.980;13.850;2022-12-04T06:26:45;4.30;99.90
19000;DHT22;9633;50.980;13.850;2022-12-04T06:28:38;4.30;99.90
19000;DHT22;9633;50.980;13.850;2022-12-04T06:30:12;4.30;99.90
19000;DHT22;9633;50.980;13.850;2022-12-04T06:31:45;4.30;99.90
19000;DHT22;9633;50.980;13.850;2022-12-04T06:33:18;4.40;99.90
19000;DHT22;9633;50.980;13.850;2022-12-04T06:34:50;4.40;99.90
19000;DHT22;9633;50.980;13.850;2022-12-04T06:36:24;4.40;99.90
19000;DHT22;9633;50.980;13.850;2022-12-04T06:37:58;4.40;99.90
19000;DHT22;9633;50.980;13.850;2022-12-04T06:39:31;4.40;99.90
19000;DHT22;9633;50.980;13.850;2022-12-04T06:41:05;4.30;99.90
19000;DHT22;9633;50.980;13.850;2022-12-04T06:42:39;4.30;99.90
19000;DHT22;9633;50.980;13.850;2022-12-04T06:44:13;4.40;99.90
19000;DHT22;9633;50.980;13.850;2022-12-04T06:45:46;4.30;99.90
19000;DHT22;9633;50.980;13.850;2022-12-04T06:47:18;4.30;99.90
19000;DHT22;9633;50.980;13.850;2022-12-04T06:48:53;4.30;99.90
19000;DHT22;9633;50.980;13.850;2022-12-04T06:50:27;4.30;99.90
19000;DHT22;9633;50.980;13.850;2022-12-04T06:51:59;4.20;99.90
19000;DHT22;9633;50.980;13.850;2022-12-04T06:53:33;4.30;99.90
19000;DHT22;9633;50.980;13.850;2022-12-04T06:55:06;4.30;99.90
19000;DHT22;9633;50.980;13.850;2022-12-04T06:56:40;4.30;99.90
19000;DHT22;9633;50.980;13.850;2022-12-04T06:58:14;4.30;99.90
19000;DHT22;9633;50.980;13.850;2022-12-04T06:59:46;4.20;99.90
19000;DHT22;9633;50.980;13.850;2022-12-04T07:01:21;4.30;99.90
19000;DHT22;9633;50.980;13.850;2022-12-04T07:02:55;4.20;99.90
19000;DHT22;9633;50.980;13.850;2022-12-04T07:04:28;4.30;99.90
19000;DHT22;9633;50.980;13.850;2022-12-04T07:06:10;4.20;99.90
19000;DHT22;9633;50.980;13.850;2022-12-04T07:07:43;4.20;99.90
19000;DHT22;9633;50.980;13.850;2022-12-04T07:09:17;4.10;99.90
19000;DHT22;9633;50.980;13.850;2022-12-04T07:10:50;4.20;99.90
19000;DHT22;9633;50.980;13.850;2022-12-04T07:12:29;4.20;99.90
19000;DHT22;9633;50.980;13.850;2022-12-04T07:14:04;4.20;99.90
19000;DHT22;9633;50.980;13.850;2022-12-04T07:15:37;4.20;99.90
19000;DHT22;9633;50.980;13.850;2022-12-04T07:17:10;4.20;99.90
19000;DHT22;9633;50.980;13.850;2022-12-04T07:18:44;4.20;99.90
19000;DHT22;9633;50.980;13.850;2022-12-04T07:20:17;4.20;99.90
19000;DHT22;9633;50.980;13.850;2022-12-04T07:21:51;4.20;99.90
19000;DHT22;9633;50.980;13.850;2022-12-04T07:23:24;4.20;99.90
19000;DHT22;9633;50.980;13.850;2022-12-04T07:24:58;4.30;99.90
19000;DHT22;9633;50.980;13.850;2022-12-04T07:26:31;4.30;99.90
19000;DHT22;9633;50.980;13.850;2022-12-04T07:28:04;4.30;99.90
19000;DHT22;9633;50.980;13.850;2022-12-04T07:29:39;4.30;99.90
19000;DHT22;9633;50.980;13.850;2022-12-04T07:31:15;4.30;99.90
19000;DHT22;9633;50.980;13.850;2022-12-04T07:32:47;4.40;99.90
19000;DHT22;9633;50.980;13.850;2022-12-04T07:34:20;4.40;99.90
19000;DHT22;9633;50.980;13.850;2022-12-04T07:35:54;4.40;99.90
19000;DHT22;9633;50.980;13.850;2022-12-04T07:37:27;4.40;99.90
19000;DHT22;9633;50.980;13.850;2022-12-04T07:39:00;4.50;99.90
19000;DHT22;9633;50.980;13.850;2022-12-04T07:40:35;4.50;99.90
19000;DHT22;9633;50.980;13.850;2022-12-04T07:42:08;4.50;99.90
19000;DHT22;9633;50.980;13.850;2022-12-04T07:43:42;4.60;99.90
19000;DHT22;9633;50.980;13.850;2022-12-04T07:45:16;4.60;99.90
19000;DHT22;9633;50.980;13.850;2022-12-04T07:46:49;4.60;99.90
19000;DHT22;9633;50.980;13.850;2022-12-04T07:48:22;4.60;99.90
19000;DHT22;9633;50.980;13.850;2022-12-04T07:50:05;4.60;99.90
19000;DHT22;9633;50.980;13.850;2022-12-04T07:51:38;4.60;99.90
19000;DHT22;9633;50.980;13.850;2022-12-04T07:53:11;4.70;99.90
19000;DHT22;9633;50.980;13.850;2022-12-04T07:54:44;4.70;99.90
19000;DHT22;9633;50.980;13.850;2022-12-04T07:56:22;4.90;99.90
19000;DHT22;9633;50.980;13.850;2022-12-04T07:57:56;4.90;99.90
19000;DHT22;9633;50.980;13.850;2022-12-04T07:59:29;4.90;99.90
19000;DHT22;9633;50.980;13.850;2022-12-04T08:01:08;4.90;99.90
19000;DHT22;9633;50.980;13.850;2022-12-04T08:02:41;4.90;99.90
19000;DHT22;9633;50.980;13.850;2022-12-04T08:04:14;5.00;99.90
19000;DHT22;9633;50.980;13.850;2022-12-04T08:05:48;5.00;99.90
19000;DHT22;9633;50.980;13.850;2022-12-04T08:07:21;5.10;99.90
19000;DHT22;9633;50.980;13.850;2022-12-04T08:08:54;5.10;99.90
19000;DHT22;9633;50.980;13.850;2022-12-04T08:10:28;5.20;99.90
19000;DHT22;9633;50.980;13.850;2022-12-04T08:12:01;5.30;99.90
19000;DHT22;9633;50.980;13.850;2022-12-04T08:13:34;5.40;99.90
19000;DHT22;9633;50.980;13.850;2022-12-04T08:15:09;5.50;99.90
19000;DHT22;9633;50.980;13.850;2022-12-04T08:16:43;5.60;99.90
19000;DHT22;9633;50.980;13.850;2022-12-04T08:18:23;5.70;99.90
19000;DHT22;9633;50.980;13.850;2022-12-04T08:19:56;5.60;99.90
19000;DHT22;9633;50.980;13.850;2022-12-04T08:21:31;5.70;99.90
19000;DHT22;9633;50.980;13.850;2022-12-04T08:23:04;5.80;99.90
19000;DHT22;9633;50.980;13.850;2022-12-04T08:24:37;5.80;99.90
19000;DHT22;9633;50.980;13.850;2022-12-04T08:26:10;5.90;99.90
19000;DHT22;9633;50.980;13.850;2022-12-04T08:27:43;5.90;99.90
19000;DHT22;9633;50.980;13.850;2022-12-04T08:29:18;5.90;99.90
19000;DHT22;9633;50.980;13.850;2022-12-04T08:30:51;6.00;99.90
19000;DHT22;9633;50.980;13.850;2022-12-04T08:32:26;6.00;99.90
19000;DHT22;9633;50.980;13.850;2022-12-04T08:34:00;6.10;99.90
19000;DHT22;9633;50.980;13.850;2022-12-04T08:35:34;6.10;99.90
19000;DHT22;9633;50.980;13.850;2022-12-04T08:37:07;6.10;99.90
19000;DHT22;9633;50.980;13.850;2022-12-04T08:38:41;6.20;99.90
19000;DHT22;9633;50.980;13.850;2022-12-04T08:40:15;6.20;99.90
19000;DHT22;9633;50.980;13.850;2022-12-04T08:41:48;6.20;99.90
19000;DHT22;9633;50.980;13.850;2022-12-04T08:43:28;6.20;99.90
19000;DHT22;9633;50.980;13.850;2022-12-04T08:45:00;6.20;99.90
19000;DHT22;9633;50.980;13.850;2022-12-04T08:46:33;6.30;99.90
19000;DHT22;9633;50.980;13.850;2022-12-04T08:48:08;6.30;99.90
19000;DHT22;9633;50.980;13.850;2022-12-04T08:49:41;6.30;99.90
19000;DHT22;9633;50.980;13.850;2022-12-04T08:51:16;6.30;99.90
19000;DHT22;9633;50.980;13.850;2022-12-04T08:52:49;6.30;99.90
19000;DHT22;9633;50.980;13.850;2022-12-04T08:54:22;6.40;99.90
19000;DHT22;9633;50.980;13.850;2022-12-04T08:55:55;6.40;99.90
19000;DHT22;9633;50.980;13.850;2022-12-04T08:57:28;6.40;99.90
19000;DHT22;9633;50.980;13.850;2022-12-04T08:59:03;6.40;99.90
19000;DHT22;9633;50.980;13.850;2022-12-04T09:00:36;6.40;99.90
19000;DHT22;9633;50.980;13.850;2022-12-04T09:02:10;6.40;99.90
19000;DHT22;9633;50.980;13.850;2022-12-04T09:03:45;6.40;99.90
19000;DHT22;9633;50.980;13.850;2022-12-04T09:05:18;6.50;99.90
19000;DHT22;9633;50.980;13.850;2022-12-04T09:06:51;6.50;99.90
19000;DHT22;9633;50.980;13.850;2022-12-04T09:08:24;6.50;99.90
19000;DHT22;9633;50.980;13.850;2022-12-04T09:09:57;6.50;99.90
19000;DHT22;9633;50.980;13.850;2022-12-04T09:11:30;6.50;99.90
19000;DHT22;9633;50.980;13.850;2022-12-04T09:13:04;6.50;99.90
19000;DHT22;9633;50.980;13.850;2022-12-04T09:14:37;6.50;99.90
19000;DHT22;9633;50.980;13.850;2022-12-04T09:16:12;6.60;99.90
19000;DHT22;9633;50.980;13.850;2022-12-04T09:17:46;6.60;99.90
19000;DHT22;9633;50.980;13.850;2022-12-04T09:19:22;6.70;99.90
19000;DHT22;9633;50.980;13.850;2022-12-04T09:20:55;6.70;99.90
19000;DHT22;9633;50.980;13.850;2022-12-04T09:22:28;6.70;99.90
19000;DHT22;9633;50.980;13.850;2022-12-04T09:24:22;6.70;99.90
19000;DHT22;9633;50.980;13.850;2022-12-04T09:25:55;6.70;99.90
19000;DHT22;9633;50.980;13.850;2022-12-04T09:27:28;6.70;99.90
19000;DHT22;9633;50.980;13.850;2022-12-04T09:29:04;6.70;99.90
19000;DHT22;9633;50.980;13.850;2022-12-04T09:30:37;6.70;99.90
19000;DHT22;9633;50.980;13.850;2022-12-04T09:32:10;6.80;99.90
19000;DHT22;9633;50.980;13.850;2022-12-04T09:33:44;6.80;99.90
19000;DHT22;9633;50.980;13.850;2022-12-04T09:35:18;6.80;99.90
19000;DHT22;9633;50.980;13.850;2022-12-04T09:36:51;6.80;99.90
19000;DHT22;9633;50.980;13.850;2022-12-04T09:38:25;6.80;99.90
19000;DHT22;9633;50.980;13.850;2022-12-04T09:39:58;6.80;99.90
19000;DHT22;9633;50.980;13.850;2022-12-04T09:41:59;6.80;99.90
19000;DHT22;9633;50.980;13.850;2022-12-04T09:43:39;6.80;99.90
19000;DHT22;9633;50.980;13.850;2022-12-04T09:45:16;6.80;99.90
19000;DHT22;9633;50.980;13.850;2022-12-04T09:46:51;6.80;99.90
19000;DHT22;9633;50.980;13.850;2022-12-04T09:48:31;6.90;99.90
19000;DHT22;9633;50.980;13.850;2022-12-04T09:50:11;6.90;99.90
19000;DHT22;9633;50.980;13.850;2022-12-04T09:51:48;6.80;99.90
19000;DHT22;9633;50.980;13.850;2022-12-04T09:53:24;6.80;99.90
19000;DHT22;9633;50.980;13.850;2022-12-04T09:54:59;6.80;99.90
19000;DHT22;9633;50.980;13.850;2022-12-04T09:56:34;6.80;99.90
19000;DHT22;9633;50.980;13.850;2022-12-04T09:58:12;6.80;99.90
19000;DHT22;9633;50.980;13.850;2022-12-04T09:59:46;6.80;99.90
19000;DHT22;9633;50.980;13.850;2022-12-04T10:01:22;6.80;99.90
19000;DHT22;9633;50.980;13.850;2022-12-04T10:02:59;6.90;99.90
19000;DHT22;9633;50.980;13.850;2022-12-04T10:04:34;6.80;99.90
19000;DHT22;9633;50.980;13.850;2022-12-04T10:06:12;6.90;99.90
19000;DHT22;9633;50.980;13.850;2022-12-04T10:07:57;6.90;99.90
19000;DHT22;9633;50.980;13.850;2022-12-04T10:09:38;6.90;99.90
19000;DHT22;9633;50.980;13.850;2022-12-04T10:11:23;6.90;99.90
19000;DHT22;9633;50.980;13.850;2022-12-04T10:13:11;6.90;99.90
19000;DHT22;9633;50.980;13.850;2022-12-04T10:15:00;6.90;99.90
19000;DHT22;9633;50.980;13.850;2022-12-04T10:16:47;6.90;99.90
19000;DHT22;9633;50.980;13.850;2022-12-04T10:18:38;7.00;99.90